Time,TemperatureF,DewpointF,PressureIn,WindDirection,WindDirectionDegrees,WindSpeedMPH,WindSpeedGustMPH,Humidity,HourlyPrecipIn,Conditions,Clouds,dailyrainin,SolarRadiationWatts/m^2,SoftwareType,DateUTC
2013-05-06 00:02:00,53.2,49.0,29.73,WSW,254,0.0,5.0,85,0.00,,,0.00,0,weatherlink.com 1.10,2013-05-06 07:02:00,
2013-05-06 00:17:00,53.2,49.0,29.73,WSW,251,1.0,4.0,85,0.00,,,0.00,0,weatherlink.com 1.10,2013-05-06 07:17:00,
2013-05-06 00:32:00,53.2,49.0,29.73,West,280,0.0,5.0,85,0.00,,,0.00,0,weatherlink.com 1.10,2013-05-06 07:32:00,
2013-05-06 00:47:00,53.1,49.0,29.74,West,268,3.0,3.0,86,0.00,,,0.00,0,weatherlink.com 1.10,2013-05-06 07:47:00,
2013-05-06 01:02:00,53.0,49.0,29.74,WNW,282,2.0,4.0,86,0.00,,,0.00,0,weatherlink.com 1.10,2013-05-06 08:02:00,
2013-05-06 01:17:00,52.9,49.0,29.74,NW,313,1.0,3.0,86,0.00,,,0.00,0,weatherlink.com 1.10,2013-05-06 08:17:00,
2013-05-06 01:32:00,52.8,49.0,29.74,WSW,254,4.0,4.0,86,0.00,,,0.00,0,weatherlink.com 1.10,2013-05-06 08:32:00,
2013-05-06 01:47:00,52.7,49.0,29.74,WNW,296,1.0,5.0,87,0.00,,,0.00,0,weatherlink.com 1.10,2013-05-06 08:47:00,
2013-05-06 02:02:00,52.7,49.0,29.74,NW,309,1.0,3.0,87,0.00,,,0.00,0,weatherlink.com 1.10,2013-05-06 09:02:00,
2013-05-06 02:17:00,52.6,49.0,29.74,WSW,258,2.0,3.0,87,0.00,,,0.00,0,weatherlink.com 1.10,2013-05-06 09:17:00,
2013-05-06 02:32:00,52.6,49.0,29.74,West,264,2.0,4.0,87,0.00,,,0.00,0,weatherlink.com 1.10,2013-05-06 09:32:00,
2013-05-06 02:47:00,52.4,49.0,29.74,West,277,0.0,4.0,88,0.00,,,0.00,0,weatherlink.com 1.10,2013-05-06 09:47:00,
2013-05-06 03:02:00,52.1,49.0,29.74,WSW,255,1.0,3.0,88,0.00,,,0.00,0,weatherlink.com 1.10,2013-05-06 10:02:00,
2013-05-06 03:17:00,50.7,48.0,29.73,SSW,205,0.0,2.0,89,0.00,,,0.00,0,weatherlink.com 1.10,2013-05-06 10:17:00,
2013-05-06 03:32:00,49.9,47.0,29.73,SSW,207,1.0,2.0,91,0.00,,,0.00,0,weatherlink.com 1.10,2013-05-06 10:32:00,
2013-05-06 03:47:00,49.7,47.0,29.73,SSW,207,1.0,2.0,91,0.00,,,0.00,0,weatherlink.com 1.10,2013-05-06 10:47:00,
2013-05-06 04:02:00,49.6,47.0,29.73,South,185,3.0,3.0,92,0.00,,,0.00,0,weatherlink.com 1.10,2013-05-06 11:02:00,
2013-05-06 04:17:00,49.2,47.0,29.73,SSW,197,1.0,2.0,92,0.00,,,0.00,0,weatherlink.com 1.10,2013-05-06 11:17:00,
2013-05-06 04:32:00,48.7,47.0,29.73,South,177,1.0,3.0,92,0.00,,,0.00,0,weatherlink.com 1.10,2013-05-06 11:32:00,
2013-05-06 04:47:00,48.0,46.0,29.72,South,177,2.0,2.0,93,0.00,,,0.00,0,weatherlink.com 1.10,2013-05-06 11:47:00,
2013-05-06 05:02:00,47.7,46.0,29.73,SSE,150,3.0,3.0,94,0.00,,,0.00,0,weatherlink.com 1.10,2013-05-06 12:02:00,
2013-05-06 05:17:00,47.8,46.0,29.73,SE,134,2.0,3.0,94,0.00,,,0.00,0,weatherlink.com 1.10,2013-05-06 12:17:00,
2013-05-06 05:32:00,47.9,47.0,29.73,SE,135,2.0,3.0,95,0.00,,,0.00,0,weatherlink.com 1.10,2013-05-06 12:32:00,
2013-05-06 05:47:00,48.0,46.0,29.73,SE,135,3.0,3.0,94,0.00,,,0.00,0,weatherlink.com 1.10,2013-05-06 12:47:00,
2013-05-06 06:02:00,48.1,47.0,29.73,SE,135,1.0,3.0,94,0.00,,,0.00,0,weatherlink.com 1.10,2013-05-06 13:02:00,
2013-05-06 06:17:00,48.1,47.0,29.73,SE,132,2.0,3.0,94,0.00,,,0.00,5,weatherlink.com 1.10,2013-05-06 13:17:00,
2013-05-06 06:32:00,48.1,47.0,29.74,SE,138,2.0,3.0,94,0.00,,,0.00,14,weatherlink.com 1.10,2013-05-06 13:32:00,
2013-05-06 06:48:00,48.5,47.0,29.74,SE,135,1.0,3.0,95,0.00,,,0.00,28,weatherlink.com 1.10,2013-05-06 13:48:00,
2013-05-06 07:03:00,49.0,47.0,29.75,SE,126,0.0,2.0,94,0.00,,,0.00,28,weatherlink.com 1.10,2013-05-06 14:03:00,
2013-05-06 07:18:00,50.3,49.0,29.75,SE,126,0.0,2.0,95,0.00,,,0.00,44,weatherlink.com 1.10,2013-05-06 14:18:00,
2013-05-06 07:33:00,50.7,49.0,29.75,SSE,148,0.0,0.0,94,0.00,,,0.00,70,weatherlink.com 1.10,2013-05-06 14:33:00,
2013-05-06 07:48:00,51.5,50.0,29.75,SE,131,2.0,2.0,93,0.00,,,0.00,98,weatherlink.com 1.10,2013-05-06 14:48:00,
2013-05-06 08:18:00,53.7,50.0,29.76,SE,125,0.0,1.0,88,0.00,,,0.00,146,weatherlink.com 1.10,2013-05-06 15:18:00,
2013-05-06 08:33:00,54.6,51.0,29.77,East,90,1.0,2.0,88,0.00,,,0.00,172,weatherlink.com 1.10,2013-05-06 15:33:00,
2013-05-06 08:48:00,55.9,52.0,29.77,ENE,72,1.0,2.0,85,0.00,,,0.00,181,weatherlink.com 1.10,2013-05-06 15:48:00,
2013-05-06 09:03:00,57.6,53.0,29.77,NNW,347,0.0,2.0,85,0.00,,,0.00,221,weatherlink.com 1.10,2013-05-06 16:03:00,
2013-05-06 09:18:00,58.9,53.0,29.78,WNW,291,2.0,4.0,81,0.00,,,0.00,246,weatherlink.com 1.10,2013-05-06 16:18:00,
2013-05-06 09:33:00,59.4,52.0,29.78,WNW,286,1.0,3.0,77,0.00,,,0.00,339,weatherlink.com 1.10,2013-05-06 16:33:00,
2013-05-06 09:48:00,60.1,52.0,29.78,North,9,1.0,2.0,75,0.00,,,0.00,306,weatherlink.com 1.10,2013-05-06 16:48:00,
2013-05-06 10:03:00,61.0,50.0,29.78,East,81,5.0,7.0,67,0.00,,,0.00,315,weatherlink.com 1.10,2013-05-06 17:03:00,
2013-05-06 10:18:00,61.1,50.0,29.78,NE,40,1.0,9.0,67,0.00,,,0.00,257,weatherlink.com 1.10,2013-05-06 17:18:00,
2013-05-06 10:33:00,61.5,50.0,29.79,SE,131,2.0,10.0,66,0.00,,,0.00,283,weatherlink.com 1.10,2013-05-06 17:33:00,
2013-05-06 10:48:00,62.1,50.0,29.79,NNE,24,2.0,7.0,64,0.00,,,0.00,353,weatherlink.com 1.10,2013-05-06 17:48:00,
2013-05-06 11:03:00,62.9,50.0,29.79,ENE,68,2.0,7.0,63,0.00,,,0.00,357,weatherlink.com 1.10,2013-05-06 18:03:00,
2013-05-06 11:19:00,63.4,49.0,29.79,ENE,60,3.0,5.0,60,0.00,,,0.00,390,weatherlink.com 1.10,2013-05-06 18:19:00,
2013-05-06 11:34:00,63.9,50.0,29.80,NE,50,2.0,8.0,60,0.00,,,0.00,480,weatherlink.com 1.10,2013-05-06 18:34:00,
2013-05-06 11:49:00,64.3,50.0,29.79,NNW,348,1.0,8.0,60,0.00,,,0.00,380,weatherlink.com 1.10,2013-05-06 18:49:00,
2013-05-06 12:04:00,63.5,49.0,29.80,NE,42,1.0,10.0,60,0.00,,,0.00,381,weatherlink.com 1.10,2013-05-06 19:04:00,
2013-05-06 12:19:00,64.1,49.0,29.79,NE,37,3.0,8.0,59,0.00,,,0.00,425,weatherlink.com 1.10,2013-05-06 19:19:00,
2013-05-06 12:34:00,65.9,51.0,29.79,NNW,347,4.0,7.0,60,0.00,,,0.00,522,weatherlink.com 1.10,2013-05-06 19:34:00,
2013-05-06 12:49:00,66.4,49.0,29.78,ESE,118,2.0,7.0,54,0.00,,,0.00,550,weatherlink.com 1.10,2013-05-06 19:49:00,
2013-05-06 13:04:00,66.7,48.0,29.78,SE,139,4.0,5.0,51,0.00,,,0.00,332,weatherlink.com 1.10,2013-05-06 20:04:00,
2013-05-06 13:19:00,65.9,49.0,29.78,SE,144,1.0,4.0,54,0.00,,,0.00,353,weatherlink.com 1.10,2013-05-06 20:19:00,
2013-05-06 13:34:00,67.4,48.0,29.78,SSE,155,1.0,6.0,51,0.00,,,0.00,446,weatherlink.com 1.10,2013-05-06 20:34:00,
2013-05-06 13:49:00,66.7,48.0,29.78,ESE,116,3.0,5.0,51,0.00,,,0.00,276,weatherlink.com 1.10,2013-05-06 20:49:00,
2013-05-06 14:04:00,66.3,48.0,29.78,NE,37,1.0,6.0,53,0.00,,,0.00,369,weatherlink.com 1.10,2013-05-06 21:04:00,
2013-05-06 14:19:00,67.4,48.0,29.78,ESE,121,1.0,5.0,50,0.00,,,0.00,221,weatherlink.com 1.10,2013-05-06 21:19:00,
2013-05-06 14:49:00,65.1,51.0,29.79,West,267,6.0,9.0,60,0.00,,,0.00,100,weatherlink.com 1.10,2013-05-06 21:49:00,
2013-05-06 15:04:00,63.9,52.0,29.78,West,266,4.0,8.0,66,0.00,,,0.00,269,weatherlink.com 1.10,2013-05-06 22:04:00,
2013-05-06 15:19:00,64.8,52.0,29.78,WSW,242,1.0,10.0,63,0.00,,,0.00,329,weatherlink.com 1.10,2013-05-06 22:19:00,
2013-05-06 15:34:00,64.5,50.0,29.78,SE,132,2.0,12.0,59,0.00,,,0.00,162,weatherlink.com 1.10,2013-05-06 22:34:00,
2013-05-06 15:49:00,63.0,49.0,29.78,SW,222,7.0,9.0,61,0.00,,,0.00,172,weatherlink.com 1.10,2013-05-06 22:49:00,
2013-05-06 16:04:00,61.8,49.0,29.78,SSW,201,3.0,8.0,63,0.00,,,0.00,132,weatherlink.com 1.10,2013-05-06 23:04:00,
2013-05-06 16:19:00,61.4,50.0,29.78,North,360,1.0,7.0,67,0.00,,,0.00,188,weatherlink.com 1.10,2013-05-06 23:19:00,
2013-05-06 16:34:00,60.8,51.0,29.78,ENE,59,2.0,4.0,70,0.00,,,0.00,114,weatherlink.com 1.10,2013-05-06 23:34:00,
2013-05-06 16:49:00,59.9,52.0,29.78,South,190,0.0,5.0,74,0.00,,,0.00,142,weatherlink.com 1.10,2013-05-06 23:49:00,
2013-05-06 17:04:00,60.4,51.0,29.78,West,279,3.0,5.0,72,0.00,,,0.00,111,weatherlink.com 1.10,2013-05-07 00:04:00,
2013-05-06 17:19:00,60.4,50.0,29.79,SSE,157,1.0,5.0,68,0.00,,,0.00,79,weatherlink.com 1.10,2013-05-07 00:19:00,
2013-05-06 17:34:00,60.4,50.0,29.79,WNW,303,1.0,3.0,68,0.00,,,0.00,120,weatherlink.com 1.10,2013-05-07 00:34:00,
2013-05-06 17:49:00,60.9,50.0,29.79,NW,304,1.0,7.0,67,0.00,,,0.00,163,weatherlink.com 1.10,2013-05-07 00:49:00,
2013-05-06 18:04:00,61.0,49.0,29.79,WSW,243,5.0,10.0,64,0.00,,,0.00,130,weatherlink.com 1.10,2013-05-07 01:04:00,
2013-05-06 18:19:00,60.4,48.0,29.79,West,265,5.0,13.0,64,0.00,,,0.00,137,weatherlink.com 1.10,2013-05-07 01:19:00,
2013-05-06 18:34:00,60.0,47.0,29.79,SSW,202,3.0,7.0,63,0.00,,,0.00,130,weatherlink.com 1.10,2013-05-07 01:34:00,
2013-05-06 18:49:00,59.8,47.0,29.79,West,269,3.0,9.0,63,0.00,,,0.00,121,weatherlink.com 1.10,2013-05-07 01:49:00,
2013-05-06 19:04:00,59.7,47.0,29.79,North,9,2.0,8.0,64,0.00,,,0.00,65,weatherlink.com 1.10,2013-05-07 02:04:00,
2013-05-06 19:19:00,59.1,48.0,29.79,NNW,342,1.0,7.0,67,0.00,,,0.00,33,weatherlink.com 1.10,2013-05-07 02:19:00,
2013-05-06 19:34:00,58.3,48.0,29.80,WSW,256,2.0,7.0,68,0.00,,,0.00,18,weatherlink.com 1.10,2013-05-07 02:34:00,
2013-05-06 19:49:00,57.3,48.0,29.80,West,267,1.0,4.0,70,0.00,,,0.00,9,weatherlink.com 1.10,2013-05-07 02:49:00,
2013-05-06 20:04:00,56.4,48.0,29.81,WNW,292,4.0,6.0,73,0.00,,,0.00,5,weatherlink.com 1.10,2013-05-07 03:04:00,
2013-05-06 20:19:00,55.9,48.0,29.82,SSW,194,0.0,3.0,75,0.00,,,0.00,0,weatherlink.com 1.10,2013-05-07 03:19:00,
2013-05-06 20:34:00,55.3,48.0,29.83,South,190,0.0,2.0,77,0.00,,,0.00,0,weatherlink.com 1.10,2013-05-07 03:34:00,
2013-05-06 20:49:00,54.5,48.0,29.83,WSW,243,1.0,2.0,79,0.00,,,0.00,0,weatherlink.com 1.10,2013-05-07 03:49:00,
2013-05-06 21:04:00,53.9,49.0,29.84,SW,220,0.0,2.0,82,0.00,,,0.00,0,weatherlink.com 1.10,2013-05-07 04:04:00,
2013-05-06 21:19:00,53.4,48.0,29.85,SW,220,1.0,2.0,83,0.00,,,0.00,0,weatherlink.com 1.10,2013-05-07 04:19:00,
2013-05-06 21:34:00,53.4,49.0,29.85,SW,220,1.0,2.0,84,0.00,,,0.00,0,weatherlink.com 1.10,2013-05-07 04:34:00,
2013-05-06 21:49:00,53.6,49.0,29.85,South,180,1.0,2.0,84,0.00,,,0.00,0,weatherlink.com 1.10,2013-05-07 04:49:00,
2013-05-06 22:05:00,53.9,49.0,29.86,South,178,0.0,2.0,84,0.00,,,0.00,0,weatherlink.com 1.10,2013-05-07 05:05:00,
2013-05-06 22:20:00,54.2,50.0,29.87,NE,39,0.0,2.0,84,0.00,,,0.00,0,weatherlink.com 1.10,2013-05-07 05:20:00,
2013-05-06 22:35:00,54.4,50.0,29.87,East,95,0.0,2.0,84,0.00,,,0.00,0,weatherlink.com 1.10,2013-05-07 05:35:00,
2013-05-06 22:50:00,54.5,49.0,29.87,South,190,0.0,4.0,83,0.00,,,0.00,0,weatherlink.com 1.10,2013-05-07 05:50:00,
2013-05-06 23:05:00,54.1,49.0,29.87,SE,124,1.0,2.0,84,0.00,,,0.00,0,weatherlink.com 1.10,2013-05-07 06:05:00,
2013-05-06 23:20:00,53.5,49.0,29.87,SE,124,1.0,2.0,85,0.00,,,0.00,0,weatherlink.com 1.10,2013-05-07 06:20:00,
2013-05-06 23:35:00,53.7,50.0,29.87,SE,124,1.0,2.0,86,0.00,,,0.00,0,weatherlink.com 1.10,2013-05-07 06:35:00,
2013-05-06 23:50:00,54.2,50.0,29.87,SSE,161,0.0,4.0,85,0.00,,,0.00,0,weatherlink.com 1.10,2013-05-07 06:50:00,